createdAt,value
2018-08-04T00:00:52.530Z,8.03
2018-08-04T00:03:21.495Z,7.67
2018-08-04T00:05:50.472Z,7.10
2018-08-04T00:08:19.427Z,7.37
2018-08-04T00:10:48.372Z,6.80
2018-08-04T00:13:17.304Z,7.43
2018-08-04T00:15:46.282Z,7.80
2018-08-04T00:18:15.247Z,7.53
2018-08-04T00:20:44.232Z,8.43
2018-08-04T00:23:13.184Z,7.07
2018-08-04T00:25:42.124Z,8.50
2018-08-04T00:28:11.065Z,7.80
2018-08-04T00:30:40.037Z,8.10
2018-08-04T00:33:08.974Z,8.30
2018-08-04T00:35:37.970Z,7.70
2018-08-04T00:38:06.945Z,7.00
2018-08-04T00:40:35.923Z,6.97
2018-08-04T00:43:04.930Z,7.07
2018-08-04T00:45:33.874Z,7.40
2018-08-04T00:48:02.878Z,7.30
2018-08-04T00:50:31.845Z,7.73
2018-08-04T00:53:00.813Z,8.10
2018-08-04T00:55:29.773Z,7.93
2018-08-04T00:57:58.768Z,7.37
2018-08-04T01:00:27.973Z,7.60
2018-08-04T01:02:56.937Z,7.27
2018-08-04T01:05:25.922Z,8.40
2018-08-04T01:07:55.247Z,7.87
2018-08-04T01:10:24.201Z,8.03
2018-08-04T01:12:53.226Z,8.03
2018-08-04T01:15:22.209Z,7.70
2018-08-04T01:17:51.212Z,8.13
2018-08-04T01:20:20.135Z,8.47
2018-08-04T01:22:49.154Z,7.87
2018-08-04T01:25:18.123Z,7.77
2018-08-04T01:27:47.140Z,7.47
2018-08-04T01:30:16.108Z,7.00
2018-08-04T01:32:45.126Z,7.53
2018-08-04T01:35:14.069Z,7.43
2018-08-04T01:37:43.089Z,7.97
2018-08-04T01:40:12.034Z,7.63
2018-08-04T01:42:40.981Z,8.43
2018-08-04T01:45:09.970Z,7.77
2018-08-04T01:47:38.986Z,8.17
2018-08-04T01:50:08.007Z,7.60
2018-08-04T01:52:36.576Z,7.40
2018-08-04T01:55:05.573Z,8.13
2018-08-04T01:57:34.606Z,7.10
2018-08-04T02:00:03.570Z,8.50
2018-08-04T02:02:32.104Z,8.17
2018-08-04T02:05:01.030Z,8.00
2018-08-04T02:07:30.066Z,8.10
2018-08-04T02:09:59.029Z,7.50
2018-08-04T02:12:27.683Z,8.33
2018-08-04T02:14:56.639Z,8.17
2018-08-04T02:17:25.603Z,8.23
2018-08-04T02:19:54.570Z,7.90
2018-08-04T02:22:23.608Z,7.17
2018-08-04T02:24:52.541Z,6.87
2018-08-04T02:27:21.694Z,7.73
2018-08-04T02:29:50.679Z,7.63
2018-08-04T02:32:19.673Z,7.23
2018-08-04T02:34:48.598Z,7.67
2018-08-04T02:37:17.647Z,8.50
2018-08-04T02:39:46.582Z,8.87
2018-08-04T02:42:15.559Z,8.47
2018-08-04T02:44:44.542Z,7.80
2018-08-04T02:47:13.523Z,7.67
2018-08-04T02:49:42.482Z,7.77
2018-08-04T02:52:11.450Z,8.07
2018-08-04T02:54:40.390Z,6.93
2018-08-04T02:57:09.370Z,7.50
2018-08-04T02:59:38.315Z,8.17
2018-08-04T03:02:07.447Z,7.87
2018-08-04T03:04:36.407Z,7.67
2018-08-04T03:07:05.395Z,7.70
2018-08-04T03:09:34.431Z,8.17
2018-08-04T03:12:03.442Z,7.50
2018-08-04T03:14:32.386Z,8.13
2018-08-04T03:17:00.930Z,8.50
2018-08-04T03:19:29.884Z,8.40
2018-08-04T03:21:58.839Z,8.03
2018-08-04T03:24:27.831Z,7.57
2018-08-04T03:26:56.777Z,8.13
2018-08-04T03:29:25.798Z,8.17
2018-08-04T03:31:55.281Z,7.90
2018-08-04T03:34:24.348Z,7.83
2018-08-04T03:36:53.331Z,8.47
2018-08-04T03:39:22.323Z,8.33
2018-08-04T03:41:51.366Z,8.13
2018-08-04T03:44:20.399Z,9.10
2018-08-04T03:46:49.363Z,8.53
2018-08-04T03:49:18.329Z,8.53
2018-08-04T03:51:47.269Z,9.00
2018-08-04T03:54:16.234Z,8.90
2018-08-04T03:56:45.178Z,8.77
2018-08-04T03:59:14.149Z,8.90
2018-08-04T04:01:43.087Z,8.10
2018-08-04T04:04:12.062Z,8.93
2018-08-04T04:06:41.094Z,9.37
2018-08-04T04:09:11.094Z,9.20
2018-08-04T04:11:40.054Z,10.00
2018-08-04T04:14:09.054Z,9.37
2018-08-04T04:16:38.011Z,8.83
2018-08-04T04:19:07.015Z,9.57
2018-08-04T04:21:36.004Z,8.73
2018-08-04T04:24:05.029Z,9.53
2018-08-04T04:26:34.060Z,8.83
2018-08-04T04:29:03.081Z,9.60
2018-08-04T04:31:32.035Z,9.07
2018-08-04T04:34:01.178Z,9.33
2018-08-04T04:36:30.162Z,9.40
2018-08-04T04:38:59.125Z,8.43
2018-08-04T04:41:28.066Z,9.13
2018-08-04T04:43:57.060Z,8.80
2018-08-04T04:46:26.013Z,9.10
2018-08-04T04:48:55.065Z,8.87
2018-08-04T04:51:24.008Z,8.77
2018-08-04T04:53:53.019Z,9.07
2018-08-04T04:56:21.946Z,9.53
2018-08-04T04:58:50.929Z,8.83
2018-08-04T05:01:19.872Z,8.73
2018-08-04T05:03:48.833Z,9.23
2018-08-04T05:06:20.017Z,9.60
2018-08-04T05:08:49.235Z,9.73
2018-08-04T05:11:18.145Z,9.97
2018-08-04T05:13:47.691Z,9.23
2018-08-04T05:16:17.077Z,9.40
2018-08-04T05:18:46.206Z,9.70
2018-08-04T05:21:15.157Z,9.30
2018-08-04T05:23:44.147Z,9.30
2018-08-04T05:26:13.123Z,9.77
2018-08-04T05:28:42.092Z,9.97
2018-08-04T05:31:11.050Z,9.80
2018-08-04T05:33:39.986Z,12.07
2018-08-04T05:36:08.942Z,11.63
2018-08-04T05:38:37.465Z,11.63
2018-08-04T05:41:06.537Z,10.80
2018-08-04T05:43:35.586Z,9.80
2018-08-04T05:46:04.537Z,9.90
2018-08-04T05:48:33.489Z,11.27
2018-08-04T05:51:02.451Z,10.97
2018-08-04T05:53:31.408Z,10.97
2018-08-04T05:56:00.404Z,10.83
2018-08-04T05:58:29.381Z,10.73
2018-08-04T06:00:58.368Z,11.07
2018-08-04T06:03:27.301Z,11.30
2018-08-04T06:05:56.541Z,11.90
2018-08-04T06:08:25.490Z,12.10
2018-08-04T06:10:54.470Z,11.60
2018-08-04T06:13:23.418Z,11.17
2018-08-04T06:15:52.372Z,11.40
2018-08-04T06:18:21.298Z,11.73
2018-08-04T06:20:50.249Z,11.67
2018-08-04T06:23:19.194Z,11.77
2018-08-04T06:25:48.198Z,11.20
2018-08-04T06:28:17.232Z,10.80
2018-08-04T06:30:46.212Z,10.97
2018-08-04T06:33:15.133Z,10.27
2018-08-04T06:35:44.107Z,9.80
2018-08-04T06:38:13.022Z,10.03
2018-08-04T06:40:42.007Z,10.07
2018-08-04T06:43:10.998Z,9.23
2018-08-04T06:45:39.958Z,8.83
2018-08-04T06:48:08.435Z,8.50
2018-08-04T06:50:37.394Z,10.10
2018-08-04T06:53:07.634Z,9.83
2018-08-04T06:55:36.631Z,9.10
2018-08-04T06:58:05.918Z,9.40
2018-08-04T07:00:35.111Z,8.17
2018-08-04T07:03:04.040Z,9.00
2018-08-04T07:05:32.990Z,8.63
2018-08-04T07:08:02.088Z,8.73
2018-08-04T07:10:31.054Z,9.00
2018-08-04T07:13:00.019Z,8.83
2018-08-04T07:15:28.986Z,10.17
2018-08-04T07:17:57.917Z,8.83
2018-08-04T07:20:26.495Z,8.73
2018-08-04T07:22:55.453Z,9.57
2018-08-04T07:25:24.417Z,8.23
2018-08-04T07:27:53.370Z,9.27
2018-08-04T07:30:22.357Z,10.30
2018-08-04T07:32:51.306Z,9.33
2018-08-04T07:35:20.268Z,9.30
2018-08-04T07:37:49.211Z,9.77
2018-08-04T07:40:18.177Z,8.77
2018-08-04T07:42:47.150Z,9.03
2018-08-04T07:45:15.655Z,9.33
2018-08-04T07:47:44.635Z,9.13
2018-08-04T07:50:13.130Z,9.10
2018-08-04T07:52:42.104Z,9.00
2018-08-04T07:55:11.065Z,8.30
2018-08-04T07:57:40.187Z,9.03
2018-08-04T08:00:08.923Z,9.73
2018-08-04T08:02:37.939Z,8.57
2018-08-04T08:05:07.442Z,8.63
2018-08-04T08:07:36.372Z,9.00
2018-08-04T08:10:06.183Z,8.83
2018-08-04T08:12:34.723Z,9.07
2018-08-04T08:15:04.184Z,9.57
2018-08-04T08:17:33.167Z,9.33
2018-08-04T08:20:02.152Z,8.67
2018-08-04T08:22:38.931Z,9.60
2018-08-04T08:25:07.960Z,9.37
2018-08-04T08:27:37.430Z,9.47
2018-08-04T08:30:07.313Z,9.03
2018-08-04T08:32:36.300Z,9.87
2018-08-04T08:35:06.871Z,8.20
2018-08-04T08:37:35.949Z,8.67
2018-08-04T08:40:05.891Z,9.90
2018-08-04T08:42:34.920Z,9.00
2018-08-04T08:45:04.396Z,8.53
2018-08-04T08:47:32.944Z,9.47
2018-08-04T08:50:01.866Z,9.67
2018-08-04T08:52:30.412Z,9.93
2018-08-04T08:54:59.372Z,8.50
2018-08-04T08:57:28.417Z,8.80
2018-08-04T08:59:57.393Z,8.73
2018-08-04T09:02:26.380Z,8.43
2018-08-04T09:04:55.349Z,8.80
2018-08-04T09:07:24.329Z,8.27
2018-08-04T09:09:53.372Z,9.03
2018-08-04T09:12:22.365Z,8.40
2018-08-04T09:14:51.376Z,8.47
2018-08-04T09:17:20.347Z,9.30
2018-08-04T09:19:49.302Z,9.40
2018-08-04T09:22:17.832Z,8.60
2018-08-04T09:24:46.788Z,8.47
2018-08-04T09:27:15.777Z,8.90
2018-08-04T09:29:44.716Z,8.73
2018-08-04T09:32:13.681Z,8.63
2018-08-04T09:34:42.609Z,9.30
2018-08-04T09:37:11.560Z,8.63
2018-08-04T09:39:40.466Z,8.90
2018-08-04T09:42:09.397Z,9.30
2018-08-04T09:44:38.308Z,9.07
2018-08-04T09:47:06.838Z,8.90
2018-08-04T09:49:35.819Z,9.63
2018-08-04T09:52:04.777Z,9.83
2018-08-04T09:54:33.712Z,10.40
2018-08-04T09:57:02.660Z,10.33
2018-08-04T09:59:31.662Z,10.03
2018-08-04T10:02:05.736Z,9.70
2018-08-04T10:04:34.797Z,10.43
2018-08-04T10:07:03.771Z,10.57
2018-08-04T10:09:32.737Z,10.53
2018-08-04T10:12:02.056Z,8.93
2018-08-04T10:14:31.064Z,8.90
2018-08-04T10:16:59.599Z,8.67
2018-08-04T10:19:28.535Z,9.13
2018-08-04T10:21:57.529Z,8.57
2018-08-04T10:24:26.493Z,9.43
2018-08-04T10:26:55.568Z,9.17
2018-08-04T10:29:24.568Z,8.23
2018-08-04T10:31:53.491Z,9.37
2018-08-04T10:34:22.489Z,9.13
2018-08-04T10:36:51.438Z,8.67
2018-08-04T10:39:20.417Z,8.60
2018-08-04T10:41:49.332Z,7.85
2018-08-04T10:44:18.284Z,8.03
2018-08-04T10:46:47.193Z,8.87
2018-08-04T10:49:16.174Z,9.03
2018-08-04T10:51:45.146Z,8.88
2018-08-04T10:54:14.113Z,8.98
2018-08-04T10:56:43.092Z,7.97
2018-08-04T10:59:12.063Z,7.87
2018-08-04T11:01:41.068Z,8.57
2018-08-04T11:04:10.059Z,8.27
2018-08-04T11:06:39.020Z,8.20
2018-08-04T11:09:09.572Z,8.03
2018-08-04T11:11:38.588Z,7.28
2018-08-04T11:14:08.607Z,8.10
2018-08-04T11:16:38.144Z,8.23
2018-08-04T11:19:07.296Z,7.67
2018-08-04T11:21:36.294Z,8.00
2018-08-04T11:24:05.287Z,7.78
2018-08-04T11:26:34.209Z,8.20
2018-08-04T11:29:03.216Z,7.95
2018-08-04T11:31:32.160Z,7.62
2018-08-04T11:34:01.196Z,7.50
2018-08-04T11:36:30.109Z,7.35
2018-08-04T11:38:59.108Z,7.75
2018-08-04T11:41:27.595Z,7.47
2018-08-04T11:43:56.603Z,8.18
2018-08-04T11:46:25.507Z,7.85
2018-08-04T11:48:54.540Z,7.40
2018-08-04T11:51:23.493Z,7.25
2018-08-04T11:53:52.446Z,8.03
2018-08-04T11:56:21.364Z,7.37
2018-08-04T11:58:50.328Z,7.47
2018-08-04T12:01:19.284Z,7.83
2018-08-04T12:03:48.237Z,7.05
2018-08-04T12:06:17.263Z,7.47
2018-08-04T12:08:46.216Z,6.62
2018-08-04T12:11:15.238Z,7.08
2018-08-04T12:13:44.189Z,7.35
2018-08-04T12:16:13.173Z,7.37
2018-08-04T12:18:42.136Z,7.17
2018-08-04T12:21:11.052Z,6.60
2018-08-04T12:23:40.004Z,6.78
2018-08-04T12:26:08.948Z,6.62
2018-08-04T12:28:38.013Z,6.17
2018-08-04T12:31:07.039Z,6.20
2018-08-04T12:33:36.152Z,6.12
2018-08-04T12:36:05.516Z,6.15
2018-08-04T12:38:35.665Z,6.35
2018-08-04T12:41:04.609Z,6.62
2018-08-04T12:43:33.584Z,6.10
2018-08-04T12:46:02.501Z,6.50
2018-08-04T12:48:31.476Z,6.80
2018-08-04T12:51:01.785Z,6.87
2018-08-04T12:53:30.964Z,7.00
2018-08-04T12:56:00.600Z,6.65
2018-08-04T12:58:29.661Z,6.12
2018-08-04T13:00:58.633Z,6.47
2018-08-04T13:03:27.591Z,6.80
2018-08-04T13:05:56.652Z,6.37
2018-08-04T13:08:25.645Z,6.00
2018-08-04T13:10:54.617Z,5.87
2018-08-04T13:13:23.576Z,6.30
2018-08-04T13:15:52.561Z,6.03
2018-08-04T13:18:21.516Z,5.62
2018-08-04T13:20:50.501Z,6.25
2018-08-04T13:23:19.417Z,6.72
2018-08-04T13:25:48.386Z,7.33
2018-08-04T13:28:17.365Z,7.83
2018-08-04T13:30:46.327Z,7.87
2018-08-04T13:33:15.362Z,8.00
2018-08-04T13:35:44.301Z,7.85
2018-08-04T13:38:13.364Z,7.00
2018-08-04T13:40:42.309Z,6.15
2018-08-04T13:43:11.268Z,6.60
2018-08-04T13:45:40.252Z,6.83
2018-08-04T13:48:09.208Z,6.47
2018-08-04T13:50:38.220Z,6.22
2018-08-04T13:53:07.145Z,6.47
2018-08-04T13:55:36.088Z,6.70
2018-08-04T13:58:05.525Z,6.85
2018-08-04T14:00:34.487Z,6.72
2018-08-04T14:03:03.664Z,7.10
2018-08-04T14:05:32.687Z,6.30
2018-08-04T14:08:01.604Z,5.75
2018-08-04T14:10:30.572Z,5.67
2018-08-04T14:12:59.498Z,5.75
2018-08-04T14:15:28.516Z,6.65
2018-08-04T14:17:58.432Z,6.03
2018-08-04T14:20:27.400Z,5.92
2018-08-04T14:22:56.430Z,6.40
2018-08-04T14:25:26.988Z,5.85
2018-08-04T14:27:55.904Z,6.47
2018-08-04T14:30:24.943Z,6.62
2018-08-04T14:32:53.889Z,7.12
2018-08-04T14:35:22.916Z,6.90
2018-08-04T14:37:51.864Z,9.05
2018-08-04T14:40:20.899Z,8.75
2018-08-04T14:42:49.922Z,8.08
2018-08-04T14:45:18.943Z,7.67
2018-08-04T14:47:47.851Z,9.15
2018-08-04T14:50:16.847Z,8.35
2018-08-04T14:52:45.837Z,7.53
2018-08-04T14:55:14.849Z,8.45
2018-08-04T14:57:43.848Z,6.87
2018-08-04T15:00:12.810Z,8.30
2018-08-04T15:02:41.754Z,8.30
2018-08-04T15:05:11.132Z,8.93
2018-08-04T15:07:40.060Z,9.25
2018-08-04T15:10:09.035Z,8.53
2018-08-04T15:12:37.972Z,7.78
2018-08-04T15:15:07.330Z,7.28
2018-08-04T15:17:36.402Z,8.05
2018-08-04T15:20:06.672Z,7.20
2018-08-04T15:22:36.773Z,7.25
2018-08-04T15:25:06.435Z,7.53
2018-08-04T15:27:35.773Z,7.67
2018-08-04T15:30:04.964Z,6.97
2018-08-04T15:32:34.002Z,6.92
2018-08-04T15:35:04.089Z,6.80
2018-08-04T15:37:33.103Z,7.05
2018-08-04T15:40:02.202Z,6.72
2018-08-04T15:42:31.294Z,6.83
2018-08-04T15:45:00.264Z,7.35
2018-08-04T15:47:29.306Z,6.65
2018-08-04T15:49:58.252Z,6.60
2018-08-04T15:52:27.271Z,7.22
2018-08-04T15:54:56.213Z,6.50
2018-08-04T15:57:25.223Z,6.50
2018-08-04T15:59:54.161Z,6.75
2018-08-04T16:02:23.165Z,6.62
2018-08-04T16:04:52.104Z,5.95
2018-08-04T16:07:21.092Z,7.12
2018-08-04T16:09:50.048Z,6.10
2018-08-04T16:12:19.104Z,6.10
2018-08-04T16:14:48.072Z,5.90
2018-08-04T16:17:17.020Z,6.00
2018-08-04T16:19:45.991Z,5.72
2018-08-04T16:22:14.986Z,6.03
2018-08-04T16:24:46.147Z,5.97
2018-08-04T16:27:15.112Z,5.80
2018-08-04T16:29:44.059Z,5.78
2018-08-04T16:32:13.041Z,5.95
2018-08-04T16:34:42.017Z,5.50
2018-08-04T16:37:11.052Z,5.75
2018-08-04T16:39:40.016Z,5.85
2018-08-04T16:42:09.008Z,6.20
2018-08-04T16:44:37.985Z,11.75
2018-08-04T16:47:06.976Z,8.95
2018-08-04T16:49:35.937Z,11.95
2018-08-04T16:52:04.966Z,12.65
2018-08-04T16:54:33.980Z,9.20
2018-08-04T16:57:03.008Z,9.68
2018-08-04T16:59:32.054Z,9.58
2018-08-04T17:02:00.519Z,8.50
2018-08-04T17:04:29.449Z,8.58
2018-08-04T17:06:58.426Z,8.50
2018-08-04T17:09:27.405Z,14.47
2018-08-04T17:11:56.336Z,15.45
2018-08-04T17:14:25.309Z,42.17
2018-08-04T17:16:54.244Z,58.52
2018-08-04T17:19:23.206Z,52.25
2018-08-04T17:21:52.188Z,48.55
2018-08-04T17:24:21.105Z,51.75
2018-08-04T17:26:49.809Z,45.33
2018-08-04T17:29:18.801Z,48.52
2018-08-04T17:31:47.780Z,44.58
2018-08-04T17:34:16.757Z,39.60
2018-08-04T17:36:45.692Z,34.95
2018-08-04T17:39:14.692Z,28.07
2018-08-04T17:41:43.653Z,20.20
2018-08-04T17:44:12.649Z,26.75
2018-08-04T17:46:41.554Z,26.60
2018-08-04T17:49:10.492Z,24.57
2018-08-04T17:51:39.409Z,21.45
2018-08-04T17:54:08.412Z,21.02
2018-08-04T17:56:37.336Z,19.00
2018-08-04T17:59:06.336Z,18.20
2018-08-04T18:01:35.510Z,19.62
2018-08-04T18:04:04.670Z,12.20
2018-08-04T18:06:33.536Z,16.12
2018-08-04T18:09:02.476Z,15.20
2018-08-04T18:11:31.391Z,13.83
2018-08-04T18:13:59.919Z,13.00
2018-08-04T18:16:28.848Z,13.95
2018-08-04T18:18:57.804Z,12.50
2018-08-04T18:21:26.717Z,13.15
2018-08-04T18:23:55.683Z,11.33
2018-08-04T18:26:24.621Z,10.32
2018-08-04T18:28:53.577Z,10.80
2018-08-04T18:31:22.618Z,10.65
2018-08-04T18:33:51.564Z,10.38
2018-08-04T18:36:20.585Z,10.38
2018-08-04T18:38:49.581Z,10.35
2018-08-04T18:41:18.528Z,10.20
2018-08-04T18:43:47.520Z,8.53
2018-08-04T18:46:16.440Z,8.78
2018-08-04T18:48:45.393Z,9.00
2018-08-04T18:51:13.873Z,8.55
2018-08-04T18:53:42.845Z,8.68
2018-08-04T18:56:11.736Z,8.33
2018-08-04T18:58:40.705Z,8.48
2018-08-04T19:01:09.616Z,8.35
2018-08-04T19:03:38.678Z,8.48
2018-08-04T19:06:07.632Z,8.05
2018-08-04T19:08:36.612Z,8.20
2018-08-04T19:11:05.269Z,7.75
2018-08-04T19:13:34.329Z,8.63
2018-08-04T19:16:03.323Z,7.70
2018-08-04T19:18:32.256Z,7.53
2018-08-04T19:21:01.172Z,8.10
2018-08-04T19:23:30.121Z,7.67
2018-08-04T19:25:59.152Z,7.67
2018-08-04T19:28:28.133Z,8.40
2018-08-04T19:30:57.044Z,7.90
2018-08-04T19:33:25.980Z,7.65
2018-08-04T19:35:54.925Z,7.47
2018-08-04T19:38:23.924Z,7.80
2018-08-04T19:40:52.827Z,8.15
2018-08-04T19:43:21.785Z,7.50
2018-08-04T19:45:51.633Z,8.30
2018-08-04T19:48:20.559Z,7.50
2018-08-04T19:50:49.493Z,8.25
2018-08-04T19:53:18.441Z,7.90
2018-08-04T19:55:47.377Z,8.00
2018-08-04T19:58:16.348Z,8.60
2018-08-04T20:00:45.289Z,8.07
2018-08-04T20:03:14.220Z,8.38
2018-08-04T20:05:43.180Z,8.57
2018-08-04T20:08:11.670Z,8.87
2018-08-04T20:10:40.625Z,8.45
2018-08-04T20:13:09.538Z,8.20
2018-08-04T20:15:38.538Z,7.20
2018-08-04T20:18:07.469Z,8.27
2018-08-04T20:20:36.412Z,8.57
2018-08-04T20:23:05.371Z,9.00
2018-08-04T20:25:34.343Z,7.93
2018-08-04T20:28:03.268Z,9.40
2018-08-04T20:30:32.235Z,8.77
2018-08-04T20:33:01.153Z,8.73
2018-08-04T20:35:30.099Z,8.73
2018-08-04T20:37:59.021Z,9.07
2018-08-04T20:40:27.973Z,8.23
2018-08-04T20:42:56.948Z,7.67
2018-08-04T20:45:25.940Z,8.37
2018-08-04T20:47:54.883Z,8.30
2018-08-04T20:50:23.870Z,8.23
2018-08-04T20:52:52.818Z,8.43
2018-08-04T20:55:21.819Z,8.20
2018-08-04T20:57:50.744Z,8.60
2018-08-04T21:00:19.724Z,8.55
2018-08-04T21:02:48.686Z,8.57
2018-08-04T21:05:17.677Z,8.37
2018-08-04T21:07:46.597Z,8.60
2018-08-04T21:10:15.550Z,8.23
2018-08-04T21:12:44.470Z,8.00
2018-08-04T21:15:13.408Z,8.77
2018-08-04T21:17:42.332Z,8.97
2018-08-04T21:20:11.355Z,8.93
2018-08-04T21:22:40.282Z,9.50
2018-08-04T21:25:09.325Z,8.10
2018-08-04T21:27:38.239Z,9.57
2018-08-04T21:30:07.613Z,8.70
2018-08-04T21:32:36.556Z,8.80
2018-08-04T21:35:05.546Z,8.83
2018-08-04T21:37:34.475Z,9.37
2018-08-04T21:40:03.444Z,8.43
2018-08-04T21:42:31.926Z,9.73
2018-08-04T21:45:00.876Z,8.67
2018-08-04T21:47:29.793Z,8.63
2018-08-04T21:49:58.754Z,8.97
2018-08-04T21:52:27.773Z,9.27
2018-08-04T21:54:56.745Z,9.40
2018-08-04T21:57:25.770Z,12.00
2018-08-04T21:59:54.752Z,9.10
2018-08-04T22:02:23.762Z,8.57
2018-08-04T22:04:52.705Z,8.80
2018-08-04T22:07:41.965Z,8.90
2018-08-04T22:10:11.667Z,9.13
2018-08-04T22:12:40.932Z,8.37
2018-08-04T22:15:11.097Z,8.63
2018-08-04T22:17:40.056Z,9.10
2018-08-04T22:20:10.973Z,8.87
2018-08-04T22:22:40.493Z,9.43
2018-08-04T22:25:11.633Z,8.30
2018-08-04T22:27:40.608Z,8.77
2018-08-04T22:30:11.401Z,9.77
2018-08-04T22:32:40.671Z,8.80
2018-08-04T22:35:09.623Z,8.67
2018-08-04T22:37:39.296Z,9.00
2018-08-04T22:40:08.695Z,8.50
2018-08-04T22:42:38.013Z,8.93
2018-08-04T22:45:53.397Z,9.90
2018-08-04T22:48:22.865Z,8.57
2018-08-04T22:50:51.793Z,9.00
2018-08-04T22:53:20.744Z,8.40
2018-08-04T22:55:49.708Z,9.17
2018-08-04T22:58:18.628Z,9.33
2018-08-04T23:00:47.576Z,9.50
2018-08-04T23:03:16.497Z,10.13
2018-08-04T23:05:45.452Z,9.97
2018-08-04T23:08:14.709Z,10.33
2018-08-04T23:10:44.262Z,9.83
2018-08-04T23:13:13.726Z,9.57
2018-08-04T23:15:42.648Z,9.13
2018-08-04T23:18:11.734Z,9.20
2018-08-04T23:20:40.677Z,9.37
2018-08-04T23:23:10.857Z,8.73
2018-08-04T23:25:39.783Z,9.03
2018-08-04T23:28:09.269Z,10.00
2018-08-04T23:30:38.218Z,10.43
2018-08-04T23:33:07.208Z,10.20
2018-08-04T23:35:36.125Z,10.63
2018-08-04T23:38:05.081Z,9.97
2018-08-04T23:40:34.000Z,10.20
2018-08-04T23:43:02.985Z,11.17
2018-08-04T23:45:31.907Z,9.93
2018-08-04T23:48:00.868Z,9.47
2018-08-04T23:50:29.772Z,10.43
2018-08-04T23:52:58.722Z,10.50
2018-08-04T23:55:27.663Z,9.73
2018-08-04T23:57:56.625Z,9.53
